createdAt,value
2023-02-02T00:01:36.072Z,100355.94
2023-02-02T00:04:38.427Z,100339.16
2023-02-02T00:07:40.780Z,100358.13
2023-02-02T00:10:43.963Z,100360.88
2023-02-02T00:13:46.924Z,100352.38
2023-02-02T00:16:51.434Z,100367.59
2023-02-02T00:19:53.884Z,100355.16
2023-02-02T00:22:59.251Z,100366.53
2023-02-02T00:26:01.671Z,100357.41
2023-02-02T00:29:05.372Z,100334.81
2023-02-02T00:32:09.776Z,100348.50
2023-02-02T00:35:12.135Z,100343.56
2023-02-02T00:38:14.512Z,100312.59
2023-02-02T00:41:17.593Z,100290.34
2023-02-02T00:44:38.438Z,100292.78
2023-02-02T00:47:40.703Z,100286.91
2023-02-02T00:50:42.857Z,100291.00
2023-02-02T00:53:45.233Z,100310.81
2023-02-02T00:56:47.574Z,100311.28
2023-02-02T00:59:49.736Z,100314.13
2023-02-02T01:02:54.129Z,100310.03
2023-02-02T01:05:56.283Z,100319.59
2023-02-02T01:08:58.859Z,100352.09
2023-02-02T01:12:01.137Z,100343.88
2023-02-02T01:15:03.794Z,100338.13
2023-02-02T01:18:05.906Z,100330.75
2023-02-02T01:21:10.226Z,100309.81
2023-02-02T01:24:12.383Z,100316.50
2023-02-02T01:27:14.743Z,100308.84
2023-02-02T01:30:17.214Z,100333.13
2023-02-02T01:33:19.952Z,100341.59
2023-02-02T01:36:23.921Z,100342.09
2023-02-02T01:39:26.624Z,100347.03
2023-02-02T01:42:29.316Z,100345.00
2023-02-02T01:45:31.620Z,100342.53
2023-02-02T01:48:36.100Z,100335.84
2023-02-02T01:51:52.559Z,100324.66
2023-02-02T01:55:00.322Z,100316.75
2023-02-02T01:58:05.542Z,100317.72
2023-02-02T02:01:08.395Z,100314.19
2023-02-02T02:04:12.104Z,100306.13
2023-02-02T02:07:14.132Z,100281.41
2023-02-02T02:10:18.566Z,100281.03
2023-02-02T02:13:25.743Z,100290.72
2023-02-02T02:16:42.958Z,100288.56
2023-02-02T02:20:37.249Z,100277.75
2023-02-02T02:24:39.917Z,100288.66
2023-02-02T02:28:09.498Z,100281.25
2023-02-02T02:31:33.458Z,100272.50
2023-02-02T02:35:17.169Z,100290.78
2023-02-02T02:38:26.871Z,100314.13
2023-02-02T02:41:36.576Z,100301.41
2023-02-02T02:44:39.462Z,100316.97
2023-02-02T02:47:42.666Z,100313.41
2023-02-02T02:50:44.826Z,100320.97
2023-02-02T02:53:47.009Z,100323.03
2023-02-02T02:57:10.822Z,100323.41
2023-02-02T03:00:32.969Z,100328.84
2023-02-02T03:03:59.915Z,100331.13
2023-02-02T03:07:07.848Z,100312.78
2023-02-02T03:10:13.379Z,100331.50
2023-02-02T03:13:16.993Z,100318.44
2023-02-02T03:16:19.149Z,100317.34
2023-02-02T03:19:22.076Z,100328.22
2023-02-02T03:22:24.946Z,100305.84
2023-02-02T03:25:27.650Z,100320.84
2023-02-02T03:28:30.518Z,100326.53
2023-02-02T03:31:32.854Z,100335.13
2023-02-02T03:34:35.239Z,100315.34
2023-02-02T03:37:37.658Z,100295.31
2023-02-02T03:40:40.505Z,100316.94
2023-02-02T03:43:42.415Z,100314.34
2023-02-02T03:46:44.743Z,100325.88
2023-02-02T03:49:46.821Z,100316.59
2023-02-02T03:52:48.773Z,100323.34
2023-02-02T03:55:50.962Z,100322.78
2023-02-02T03:58:53.194Z,100327.28
2023-02-02T04:01:55.273Z,100321.16
2023-02-02T04:04:57.594Z,100314.47
2023-02-02T04:07:59.942Z,100298.09
2023-02-02T04:11:02.626Z,100283.88
2023-02-02T04:14:04.675Z,100282.34
2023-02-02T04:17:06.766Z,100278.28
2023-02-02T04:20:09.447Z,100286.03
2023-02-02T04:23:11.632Z,100304.41
2023-02-02T04:26:14.109Z,100297.34
2023-02-02T04:29:17.168Z,100310.75
2023-02-02T04:32:19.679Z,100307.03
2023-02-02T04:35:24.506Z,100320.09
2023-02-02T04:38:27.106Z,100302.09
2023-02-02T04:41:29.203Z,100305.63
2023-02-02T04:44:31.524Z,100326.56
2023-02-02T04:47:33.888Z,100326.34
2023-02-02T04:50:36.760Z,100323.44
2023-02-02T04:53:40.805Z,100338.84
2023-02-02T04:56:43.602Z,100319.91
2023-02-02T04:59:46.000Z,100344.25
2023-02-02T05:02:48.420Z,100338.03
2023-02-02T05:05:50.732Z,100341.28
2023-02-02T05:08:53.475Z,100343.06
2023-02-02T05:11:56.864Z,100356.97
2023-02-02T05:15:01.244Z,100355.75
2023-02-02T05:18:05.867Z,100370.03
2023-02-02T05:21:08.426Z,100375.53
2023-02-02T05:24:12.744Z,100386.06
2023-02-02T05:27:15.197Z,100393.69
2023-02-02T05:30:18.447Z,100394.50
2023-02-02T05:33:21.423Z,100406.78
2023-02-02T05:36:23.473Z,100409.91
2023-02-02T05:39:25.528Z,100416.63
2023-02-02T05:42:27.792Z,100427.28
2023-02-02T05:45:30.248Z,100414.81
2023-02-02T05:48:33.244Z,100420.75
2023-02-02T05:51:43.575Z,100427.56
2023-02-02T05:54:46.326Z,100422.84
2023-02-02T05:57:48.814Z,100430.25
2023-02-02T06:00:51.283Z,100414.75
2023-02-02T06:03:53.638Z,100419.31
2023-02-02T06:06:56.447Z,100426.28
2023-02-02T06:09:59.579Z,100403.97
2023-02-02T06:13:02.211Z,100400.69
2023-02-02T06:16:04.994Z,100402.00
2023-02-02T06:19:07.867Z,100404.25
2023-02-02T06:22:10.336Z,100399.34
2023-02-02T06:25:12.614Z,100404.13
2023-02-02T06:28:14.611Z,100407.22
2023-02-02T06:35:08.915Z,100408.00
2023-02-02T06:38:11.519Z,100398.25
2023-02-02T06:41:16.791Z,100406.59
2023-02-02T06:44:21.098Z,100399.03
2023-02-02T06:47:23.673Z,100402.09
2023-02-02T06:50:32.326Z,100412.78
2023-02-02T06:53:41.853Z,100409.13
2023-02-02T06:56:58.824Z,100416.53
2023-02-02T07:00:09.479Z,100419.72
2023-02-02T07:03:11.873Z,100420.66
2023-02-02T07:06:30.973Z,100438.66
2023-02-02T07:10:09.703Z,100438.28
2023-02-02T07:13:53.991Z,100447.50
2023-02-02T07:16:57.004Z,100439.50
2023-02-02T07:23:48.784Z,100466.66
2023-02-02T07:30:38.145Z,100488.31
2023-02-02T07:33:55.743Z,100473.94
2023-02-02T07:41:56.910Z,100459.25
2023-02-02T07:45:26.947Z,100452.59
2023-02-02T08:03:03.943Z,100474.31
2023-02-02T08:06:52.581Z,100485.16
2023-02-02T08:21:49.121Z,100442.75
2023-02-02T08:26:13.929Z,100485.81
2023-02-02T08:49:45.228Z,100476.34
2023-02-02T09:01:42.481Z,100510.13
2023-02-02T09:09:48.047Z,100502.78
2023-02-02T09:13:42.919Z,100516.84
2023-02-02T09:17:42.673Z,100511.94
2023-02-02T09:21:06.430Z,100508.66
2023-02-02T09:29:28.574Z,100505.09
2023-02-02T09:32:54.910Z,100518.50
2023-02-02T09:36:11.063Z,100521.28
2023-02-02T09:53:24.562Z,100520.03
2023-02-02T10:06:08.651Z,100536.72
2023-02-02T10:13:45.464Z,100539.88
2023-02-02T10:25:38.338Z,100534.28
2023-02-02T10:29:58.927Z,100535.63
2023-02-02T10:34:51.237Z,100518.38
2023-02-02T10:38:44.565Z,100516.91
2023-02-02T10:42:35.496Z,100518.00
2023-02-02T10:46:36.272Z,100488.81
2023-02-02T10:50:28.385Z,100466.09
2023-02-02T10:53:41.173Z,100487.16
2023-02-02T10:56:56.531Z,100500.06
2023-02-02T11:36:43.364Z,100505.78
2023-02-02T11:53:35.750Z,100536.41
2023-02-02T12:00:31.964Z,100545.41
2023-02-02T12:03:52.708Z,100517.75
2023-02-02T12:12:39.353Z,100540.34
2023-02-02T12:25:54.193Z,100537.91
2023-02-02T12:29:55.547Z,100535.06
2023-02-02T12:43:06.388Z,100535.91
2023-02-02T12:46:38.015Z,100531.50
2023-02-02T12:50:27.187Z,100540.66
2023-02-02T12:54:52.741Z,100529.88
2023-02-02T12:58:34.753Z,100539.72
2023-02-02T13:02:55.824Z,100528.09
2023-02-02T13:06:33.301Z,100530.16
2023-02-02T13:13:42.944Z,100536.59
2023-02-02T13:17:09.467Z,100548.50
2023-02-02T13:20:58.412Z,100533.44
2023-02-02T13:24:22.064Z,100533.31
2023-02-02T13:27:35.531Z,100550.97
2023-02-02T13:31:37.722Z,100560.84
2023-02-02T13:35:13.762Z,100555.91
2023-02-02T13:38:44.160Z,100541.25
2023-02-02T13:41:59.623Z,100521.53
2023-02-02T13:45:50.118Z,100545.63
2023-02-02T13:49:19.179Z,100576.59
2023-02-02T13:52:49.390Z,100568.78
2023-02-02T13:56:44.852Z,100569.88
2023-02-02T14:00:20.345Z,100566.16
2023-02-02T14:03:39.214Z,100573.16
2023-02-02T14:14:07.538Z,100576.84
2023-02-02T14:17:24.772Z,100575.19
2023-02-02T14:21:25.830Z,100554.56
2023-02-02T14:24:52.931Z,100560.56
2023-02-02T14:28:09.225Z,100566.44
2023-02-02T14:31:21.193Z,100583.16
2023-02-02T14:34:36.680Z,100571.94
2023-02-02T14:37:58.618Z,100580.41
2023-02-02T14:41:38.625Z,100581.94
2023-02-02T14:45:05.643Z,100581.38
2023-02-02T14:48:27.146Z,100574.53
2023-02-02T14:51:34.158Z,100583.69
2023-02-02T14:54:53.750Z,100577.81
2023-02-02T14:58:05.862Z,100548.25
2023-02-02T15:01:12.220Z,100569.06
2023-02-02T15:04:21.914Z,100603.13
2023-02-02T15:07:24.651Z,100594.38
2023-02-02T15:10:53.859Z,100613.13
2023-02-02T15:14:07.714Z,100583.97
2023-02-02T15:17:35.754Z,100604.22
2023-02-02T15:20:49.663Z,100606.69
2023-02-02T15:23:53.168Z,100597.75
2023-02-02T15:27:01.485Z,100617.31
2023-02-02T15:30:09.619Z,100610.78
2023-02-02T15:33:31.449Z,100621.47
2023-02-02T15:36:40.133Z,100626.41
2023-02-02T15:39:58.634Z,100632.91
2023-02-02T15:43:09.518Z,100638.09
2023-02-02T15:46:27.062Z,100630.84
2023-02-02T15:49:36.824Z,100646.28
2023-02-02T15:52:52.823Z,100658.03
2023-02-02T15:55:58.788Z,100661.44
2023-02-02T15:59:02.138Z,100657.00
2023-02-02T16:02:24.936Z,100643.28
2023-02-02T16:05:30.094Z,100648.75
2023-02-02T16:08:35.000Z,100647.72
2023-02-02T16:11:42.897Z,100653.06
2023-02-02T16:14:51.403Z,100659.97
2023-02-02T16:18:01.621Z,100666.81
2023-02-02T16:21:11.707Z,100657.91
2023-02-02T16:24:35.408Z,100662.22
2023-02-02T16:27:46.449Z,100674.56
2023-02-02T16:30:53.228Z,100690.88
2023-02-02T16:33:58.159Z,100675.81
2023-02-02T16:37:32.705Z,100693.19
2023-02-02T16:40:38.993Z,100660.53
2023-02-02T16:43:48.294Z,100716.59
2023-02-02T16:46:52.844Z,100692.41
2023-02-02T16:50:09.926Z,100680.25
2023-02-02T16:53:23.508Z,100714.81
2023-02-02T16:56:57.487Z,100712.88
2023-02-02T17:00:07.354Z,100723.44
2023-02-02T17:03:11.511Z,100732.69
2023-02-02T17:06:15.103Z,100733.94
2023-02-02T17:09:38.347Z,100726.31
2023-02-02T17:12:41.253Z,100732.63
2023-02-02T17:15:55.299Z,100742.19
2023-02-02T17:19:00.705Z,100747.50
2023-02-02T17:22:08.648Z,100740.75
2023-02-02T17:25:40.823Z,100758.66
2023-02-02T17:28:48.387Z,100757.88
2023-02-02T17:31:54.983Z,100738.53
2023-02-02T17:34:57.481Z,100750.38
2023-02-02T17:38:00.107Z,100770.16
2023-02-02T17:41:03.946Z,100757.06
2023-02-02T17:44:07.179Z,100780.59
2023-02-02T17:47:13.629Z,100779.78
2023-02-02T17:50:18.152Z,100780.59
2023-02-02T17:53:22.447Z,100786.50
2023-02-02T17:56:24.679Z,100792.31
2023-02-02T17:59:27.357Z,100791.97
2023-02-02T18:02:30.546Z,100795.16
2023-02-02T18:05:41.369Z,100808.13
2023-02-02T18:08:49.058Z,100789.63
2023-02-02T18:11:51.845Z,100791.41
2023-02-02T18:14:55.323Z,100798.97
2023-02-02T18:18:00.953Z,100815.97
2023-02-02T18:21:10.176Z,100808.63
2023-02-02T18:24:17.519Z,100804.53
2023-02-02T18:27:20.917Z,100825.66
2023-02-02T18:30:24.306Z,100844.66
2023-02-02T18:33:30.442Z,100858.34
2023-02-02T18:36:34.439Z,100860.31
2023-02-02T18:39:37.299Z,100866.56
2023-02-02T18:42:40.689Z,100859.50
2023-02-02T18:45:43.250Z,100867.06
2023-02-02T18:48:45.883Z,100860.00
2023-02-02T18:51:49.319Z,100863.53
2023-02-02T18:54:52.260Z,100831.81
2023-02-02T18:57:55.465Z,100835.13
2023-02-02T19:00:58.103Z,100851.03
2023-02-02T19:04:00.928Z,100854.66
2023-02-02T19:07:22.876Z,100855.38
2023-02-02T19:10:30.162Z,100847.97
2023-02-02T19:13:34.036Z,100868.34
2023-02-02T19:16:36.908Z,100878.63
2023-02-02T19:19:40.636Z,100866.34
2023-02-02T19:22:44.721Z,100872.38
2023-02-02T19:25:52.385Z,100886.41
2023-02-02T19:29:12.437Z,100887.94
2023-02-02T19:32:27.186Z,100878.25
2023-02-02T19:35:32.315Z,100891.34
2023-02-02T19:38:37.139Z,100890.41
2023-02-02T19:41:42.641Z,100888.75
2023-02-02T19:44:46.051Z,100890.53
2023-02-02T19:47:51.568Z,100895.84
2023-02-02T19:50:59.157Z,100889.31
2023-02-02T19:54:02.636Z,100913.63
2023-02-02T19:57:21.344Z,100914.09
2023-02-02T20:00:27.352Z,100917.97
2023-02-02T20:03:43.674Z,100919.50
2023-02-02T20:06:58.685Z,100935.16
2023-02-02T20:10:39.762Z,100935.38
2023-02-02T20:13:48.775Z,100941.63
2023-02-02T20:16:55.364Z,100936.47
2023-02-02T20:19:58.297Z,100942.22
2023-02-02T20:23:01.829Z,100935.03
2023-02-02T20:26:15.181Z,100937.84
2023-02-02T20:29:28.389Z,100945.59
2023-02-02T20:32:41.711Z,100949.03
2023-02-02T20:35:45.212Z,100957.06
2023-02-02T20:38:48.253Z,100959.41
2023-02-02T20:41:50.845Z,100967.78
2023-02-02T20:44:54.475Z,100973.06
2023-02-02T20:47:57.280Z,100975.44
2023-02-02T20:50:59.860Z,100983.56
2023-02-02T20:54:04.175Z,100984.97
2023-02-02T20:57:08.592Z,100985.78
2023-02-02T21:00:14.094Z,100985.19
2023-02-02T21:03:16.786Z,101001.66
2023-02-02T21:06:19.447Z,100989.28
2023-02-02T21:09:22.909Z,100993.84
2023-02-02T21:12:25.878Z,101001.28
2023-02-02T21:15:28.228Z,100997.25
2023-02-02T21:18:30.899Z,101002.97
2023-02-02T21:21:34.141Z,100998.63
2023-02-02T21:24:36.654Z,100994.25
2023-02-02T21:27:44.833Z,100990.00
2023-02-02T21:30:47.363Z,100985.41
2023-02-02T21:33:50.891Z,100986.53
2023-02-02T21:36:57.325Z,101009.34
2023-02-02T21:40:00.200Z,101013.91
2023-02-02T21:43:13.826Z,101011.31
2023-02-02T21:46:24.906Z,101020.84
2023-02-02T21:49:40.452Z,101030.88
2023-02-02T21:52:44.324Z,101030.94
2023-02-02T21:55:57.318Z,101049.88
2023-02-02T21:59:01.235Z,101050.19
2023-02-02T22:02:39.246Z,101064.72
2023-02-02T22:05:41.694Z,101063.59
2023-02-02T22:08:47.796Z,101069.72
2023-02-02T22:12:01.721Z,101053.53
2023-02-02T22:15:18.960Z,101076.31
2023-02-02T22:18:24.746Z,101085.00
2023-02-02T22:21:27.509Z,101091.16
2023-02-02T22:24:31.602Z,101096.44
2023-02-02T22:27:41.913Z,101094.25
2023-02-02T22:30:44.392Z,101100.69
2023-02-02T22:33:46.566Z,101106.78
2023-02-02T22:36:48.817Z,101118.91
2023-02-02T22:39:51.179Z,101107.72
2023-02-02T22:42:58.074Z,101114.13
2023-02-02T22:46:00.660Z,101125.31
2023-02-02T22:49:03.419Z,101113.22
2023-02-02T22:52:05.567Z,101122.44
2023-02-02T22:55:08.504Z,101126.25
2023-02-02T22:58:10.864Z,101142.72
2023-02-02T23:01:15.995Z,101148.75
2023-02-02T23:04:20.014Z,101148.84
2023-02-02T23:07:22.237Z,101160.38
2023-02-02T23:10:28.119Z,101163.97
2023-02-02T23:13:30.629Z,101158.28
2023-02-02T23:16:33.198Z,101168.44
2023-02-02T23:19:36.918Z,101169.25
2023-02-02T23:22:39.149Z,101176.19
2023-02-02T23:25:41.406Z,101173.31
2023-02-02T23:28:43.908Z,101182.19
2023-02-02T23:31:50.303Z,101191.69
2023-02-02T23:34:53.684Z,101172.75
2023-02-02T23:37:56.291Z,101182.38
2023-02-02T23:41:00.738Z,101189.94
2023-02-02T23:44:03.137Z,101192.34
2023-02-02T23:47:07.365Z,101192.81
2023-02-02T23:50:11.802Z,101199.06
2023-02-02T23:53:15.631Z,101213.22
2023-02-02T23:56:18.935Z,101199.34
2023-02-02T23:59:24.612Z,101214.34
